Time;durP1;ratioP1;P1;durP2;ratioP2;P2;SDS_P1;SDS_P2;PMS_P1;PMS_P2;Temp;Humidity;BMP_temperature;BMP_pressure;BME280_temperature;BME280_humidity;BME280_pressure;Samples;Min_cycle;Max_cycle;Signal;HPM_P1;HPM_P2
2022/12/12 00:00:14;;;;;;;5.45;3.15;;;;;;;0.70;100.00;97094.53;5016736;28;20454;-57
2022/12/12 00:02:41;;;;;;;11.95;4.55;;;;;;;0.68;100.00;97115.66;5016832;28;20099;-58
2022/12/12 00:05:09;;;;;;;7.03;3.75;;;;;;;0.63;100.00;97122.09;5016710;28;20100;-60
2022/12/12 00:07:35;;;;;;;9.93;4.30;;;;;;;0.59;100.00;97126.59;5017121;28;20053;-60
2022/12/12 00:10:02;;;;;;;9.05;4.15;;;;;;;0.64;100.00;97122.88;5016897;28;20146;-59
2022/12/12 00:12:28;;;;;;;7.25;4.45;;;;;;;0.66;100.00;97134.09;5016943;28;20050;-58
2022/12/12 00:14:55;;;;;;;6.53;3.45;;;;;;;0.61;100.00;97150.53;5016424;28;20050;-61
2022/12/12 00:17:22;;;;;;;8.93;4.13;;;;;;;0.53;100.00;97157.66;5016981;28;20049;-61
2022/12/12 00:19:48;;;;;;;11.65;5.35;;;;;;;0.55;100.00;97162.72;5016525;28;20075;-60
2022/12/12 00:22:14;;;;;;;13.43;4.20;;;;;;;0.52;100.00;97168.81;5016957;28;20119;-58
2022/12/12 00:24:41;;;;;;;9.10;4.47;;;;;;;0.33;100.00;97172.94;5016330;28;20081;-61
2022/12/12 00:27:07;;;;;;;16.38;5.22;;;;;;;0.19;100.00;97178.75;5016411;28;20058;-58
2022/12/12 00:29:34;;;;;;;10.55;4.45;;;;;;;0.20;100.00;97169.56;5016508;28;20057;-60
2022/12/12 00:32:01;;;;;;;18.85;4.53;;;;;;;0.14;100.00;97168.25;5016325;28;20149;-60
2022/12/12 00:34:27;;;;;;;9.13;4.53;;;;;;;-0.10;100.00;97171.84;5016295;28;20053;-59
2022/12/12 00:36:53;;;;;;;13.85;4.32;;;;;;;-0.01;100.00;97167.06;5016217;28;20062;-62
2022/12/12 00:39:21;;;;;;;12.80;5.28;;;;;;;0.00;100.00;97167.88;5016803;28;20066;-60
2022/12/12 00:41:48;;;;;;;11.05;5.78;;;;;;;0.04;100.00;97179.53;5016254;28;20100;-59
2022/12/12 00:44:14;;;;;;;14.45;5.43;;;;;;;0.09;100.00;97175.78;5016610;28;20053;-59
2022/12/12 00:46:41;;;;;;;9.80;4.95;;;;;;;-0.04;100.00;97156.19;5016523;28;20148;-61
2022/12/12 00:49:08;;;;;;;12.95;5.18;;;;;;;0.16;100.00;97143.63;5016590;28;20046;-61
2022/12/12 00:51:35;;;;;;;9.90;5.25;;;;;;;0.17;100.00;97153.31;5016671;28;20058;-61
2022/12/12 00:54:01;;;;;;;8.38;4.35;;;;;;;0.25;100.00;97160.44;5016094;28;20148;-59
2022/12/12 00:56:28;;;;;;;11.32;4.80;;;;;;;0.20;100.00;97174.16;5016097;28;20144;-59
2022/12/12 00:58:54;;;;;;;13.82;5.35;;;;;;;-0.18;100.00;97191.59;5015997;28;20081;-60
2022/12/12 01:01:24;;;;;;;9.80;4.38;;;;;;;0.09;100.00;97179.25;5016214;28;20320;-58
2022/12/12 01:03:51;;;;;;;18.77;5.32;;;;;;;0.09;100.00;97189.25;5016003;28;20203;-60
2022/12/12 01:06:18;;;;;;;11.48;4.95;;;;;;;0.06;100.00;97174.56;5016464;28;20057;-55
2022/12/12 01:08:44;;;;;;;9.40;4.80;;;;;;;0.02;100.00;97189.84;5015956;28;20140;-60
2022/12/12 01:11:13;;;;;;;12.98;5.10;;;;;;;0.01;100.00;97171.34;5016277;28;20049;-60
2022/12/12 01:13:39;;;;;;;9.70;4.68;;;;;;;-0.07;100.00;97170.34;5015895;28;20089;-59
2022/12/12 01:16:07;;;;;;;13.40;6.18;;;;;;;-0.16;100.00;97178.59;5016224;28;20344;-59
2022/12/12 01:18:34;;;;;;;9.48;4.90;;;;;;;-0.11;100.00;97178.34;5016100;28;20054;-55
2022/12/12 01:21:01;;;;;;;12.35;5.68;;;;;;;-0.10;100.00;97188.00;5016286;28;20057;-57
2022/12/12 01:23:28;;;;;;;12.20;5.10;;;;;;;-0.04;100.00;97188.53;5016065;28;20137;-58
2022/12/12 01:26:00;;;;;;;11.52;6.07;;;;;;;-0.16;100.00;97202.84;5015672;28;20049;-58
2022/12/12 01:28:26;;;;;;;10.05;5.50;;;;;;;-0.06;100.00;97186.19;5015886;28;20050;-59
2022/12/12 01:30:52;;;;;;;13.35;5.50;;;;;;;-0.49;100.00;97197.66;5015597;28;20049;-61
2022/12/12 01:33:19;;;;;;;12.65;6.10;;;;;;;-0.56;100.00;97200.16;5016135;28;20380;-57
2022/12/12 01:35:45;;;;;;;10.75;5.32;;;;;;;-0.38;100.00;97173.72;5016340;28;20064;-60
2022/12/12 01:38:11;;;;;;;13.95;5.75;;;;;;;-0.29;100.00;97167.06;5019347;28;20057;-61
2022/12/12 01:40:39;;;;;;;12.85;5.75;;;;;;;-0.43;100.00;97165.88;5019261;28;20072;-58
2022/12/12 01:43:08;;;;;;;11.73;5.70;;;;;;;-0.32;100.00;97164.28;5018939;28;20200;-59
2022/12/12 01:46:17;;;;;;;10.30;5.47;;;;;;;-0.28;100.00;97143.63;5019063;28;20061;-60
2022/12/12 01:48:49;;;;;;;14.15;5.65;;;;;;;-0.34;100.00;97131.53;5018898;28;20150;-59
2022/12/12 01:51:19;;;;;;;19.95;6.22;;;;;;;-0.63;100.00;97149.59;5019114;28;20054;-59
2022/12/12 01:53:48;;;;;;;15.32;6.55;;;;;;;-1.00;100.00;97160.41;5018730;28;20136;-57
2022/12/12 01:56:18;;;;;;;11.50;5.78;;;;;;;-1.46;100.00;97137.44;5018998;28;20089;-58
2022/12/12 01:58:47;;;;;;;14.10;6.25;;;;;;;-1.45;100.00;97094.09;5018686;28;20062;-58
2022/12/12 02:01:15;;;;;;;13.77;6.20;;;;;;;-0.99;100.00;97065.16;5018750;28;20050;-55
2022/12/12 02:03:42;;;;;;;9.93;6.03;;;;;;;-1.51;100.00;97047.06;5018859;28;20136;-58
2022/12/12 02:06:13;;;;;;;13.65;6.72;;;;;;;-1.13;100.00;97027.09;5018484;28;20089;-59
2022/12/12 02:08:40;;;;;;;13.85;6.65;;;;;;;-1.34;100.00;97032.59;5018822;28;20050;-58
2022/12/12 02:11:06;;;;;;;12.02;5.88;;;;;;;-1.40;100.00;97015.13;5018627;28;20064;-60
2022/12/12 02:13:34;;;;;;;12.40;5.85;;;;;;;-1.58;100.00;97003.09;5018762;28;20080;-58
2022/12/12 02:16:09;;;;;;;10.85;5.82;;;;;;;-1.45;100.00;96991.97;5018326;28;20446;-60
2022/12/12 02:18:45;;;;;;;11.68;5.70;;;;;;;-1.17;100.00;96977.00;5018767;28;20050;-59
2022/12/12 02:21:18;;;;;;;10.63;5.53;;;;;;;-0.81;100.00;96976.09;5018307;28;20065;-61
2022/12/12 02:24:20;;;;;;;8.88;5.28;;;;;;;-0.96;100.00;97023.34;5018762;28;20418;-58
2022/12/12 02:27:15;;;;;;;11.43;4.85;;;;;;;-0.87;100.00;97047.41;5018542;28;20057;-60
2022/12/12 02:30:19;;;;;;;7.28;4.32;;;;;;;-1.16;100.00;97081.53;5018317;28;20141;-56
2022/12/12 02:32:57;;;;;;;8.52;4.93;;;;;;;-0.97;100.00;97095.19;5018523;28;20061;-57
2022/12/12 02:35:34;;;;;;;8.90;4.45;;;;;;;-1.06;100.00;97117.94;5017972;28;20050;-60
2022/12/12 02:38:09;;;;;;;8.63;4.40;;;;;;;-1.02;100.00;97141.13;5018242;28;20064;-60
2022/12/12 02:40:44;;;;;;;11.32;4.43;;;;;;;-1.05;100.00;97162.53;5017946;28;20152;-61
2022/12/12 02:43:15;;;;;;;6.65;4.18;;;;;;;-1.04;100.00;97175.63;5018227;28;20174;-59
2022/12/12 02:45:48;;;;;;;7.90;4.30;;;;;;;-1.35;100.00;97186.16;5018338;28;20065;-57
2022/12/12 02:48:23;;;;;;;6.97;3.97;;;;;;;-1.10;100.00;97177.00;5017714;28;20054;-60
2022/12/12 02:50:53;;;;;;;8.38;3.97;;;;;;;-1.02;100.00;97202.19;5018143;28;20060;-58
2022/12/12 02:53:22;;;;;;;5.15;3.97;;;;;;;-1.22;100.00;97220.00;5018125;28;20050;-58
2022/12/12 02:55:49;;;;;;;8.55;4.63;;;;;;;-1.15;100.00;97228.31;5018158;28;20058;-62
2022/12/12 02:58:16;;;;;;;6.82;4.55;;;;;;;-1.25;100.00;97245.66;5018071;28;20045;-60
2022/12/12 03:00:53;;;;;;;7.18;3.80;;;;;;;-1.28;100.00;97257.06;5017830;28;20053;-56
2022/12/12 03:09:39;;;;;;;9.02;3.83;;;;;;;-1.44;100.00;97291.09;5017965;28;20057;-56
2022/12/12 03:12:10;;;;;;;6.60;3.83;;;;;;;-1.37;100.00;97290.53;5017880;28;20137;-60
2022/12/12 03:14:51;;;;;;;6.88;4.13;;;;;;;-1.59;100.00;97292.50;5017603;28;20123;-57
2022/12/12 03:17:28;;;;;;;10.93;4.63;;;;;;;-1.57;100.00;97303.69;5017718;28;20121;-59
2022/12/12 03:19:59;;;;;;;8.82;4.40;;;;;;;-1.48;100.00;97301.72;5017410;28;20137;-58
2022/12/12 03:22:31;;;;;;;10.00;4.43;;;;;;;-1.15;100.00;97298.22;5017307;28;20062;-58
2022/12/12 03:25:05;;;;;;;9.40;5.40;;;;;;;-1.95;100.00;97312.72;5017891;28;20053;-61
2022/12/12 03:27:36;;;;;;;9.18;5.28;;;;;;;-1.91;100.00;97304.78;5017311;28;20100;-55
2022/12/12 03:30:06;;;;;;;7.32;4.72;;;;;;;-2.05;100.00;97310.41;5017620;28;20086;-58
2022/12/12 03:32:38;;;;;;;7.70;4.80;;;;;;;-1.93;100.00;97307.81;5017148;28;20112;-57
2022/12/12 03:35:11;;;;;;;6.93;4.88;;;;;;;-2.05;100.00;97313.09;5017496;28;20081;-54
2022/12/12 03:37:44;;;;;;;8.70;5.20;;;;;;;-1.90;100.00;97317.09;5017172;28;20339;-57
2022/12/12 03:40:15;;;;;;;9.73;5.70;;;;;;;-2.05;100.00;97329.22;5017541;28;20140;-58
2022/12/12 03:42:47;;;;;;;12.10;5.50;;;;;;;-1.84;100.00;97329.22;5017058;28;20097;-59
2022/12/12 03:45:17;;;;;;;8.82;4.97;;;;;;;-2.29;100.00;97324.50;5017246;28;20539;-60
2022/12/12 03:47:49;;;;;;;10.52;5.32;;;;;;;-2.21;100.00;97315.56;5017070;28;20115;-58
2022/12/12 03:50:20;;;;;;;12.18;5.82;;;;;;;-2.23;100.00;97306.28;5016967;28;20057;-59
2022/12/12 03:52:52;;;;;;;11.18;5.68;;;;;;;-2.49;100.00;97307.25;5017212;28;20145;-59
2022/12/12 03:55:24;;;;;;;11.90;5.00;;;;;;;-2.48;100.00;97303.44;5016888;28;20143;-61
2022/12/12 03:57:57;;;;;;;8.55;4.80;;;;;;;-2.67;100.00;97308.44;5017390;28;20085;-59
2022/12/12 04:00:24;;;;;;;10.88;5.15;;;;;;;-2.43;100.00;97284.47;5016608;28;20145;-59
2022/12/12 04:02:55;;;;;;;11.27;6.18;;;;;;;-2.20;100.00;97284.97;5016724;28;20149;-59
2022/12/12 04:05:26;;;;;;;11.68;5.38;;;;;;;-2.11;100.00;97292.16;5016773;28;20049;-59
2022/12/12 04:07:59;;;;;;;11.38;6.32;;;;;;;-1.94;100.00;97295.47;5016935;28;20457;-57
2022/12/12 04:13:28;;;;;;;11.77;5.97;;;;;;;-2.18;100.00;97316.84;5017023;28;20060;-60
2022/12/12 04:16:01;;;;;;;10.93;5.88;;;;;;;-2.95;100.00;97338.38;5016676;28;20064;-61
2022/12/12 04:18:38;;;;;;;11.88;6.05;;;;;;;-3.10;100.00;97323.59;5016244;28;20057;-59
2022/12/12 04:24:14;;;;;;;12.95;6.65;;;;;;;-3.09;100.00;97297.59;5016833;28;20147;-60
2022/12/12 04:26:46;;;;;;;14.45;6.38;;;;;;;-3.13;100.00;97297.44;5016510;28;20085;-59
2022/12/12 04:29:25;;;;;;;15.00;6.25;;;;;;;-3.05;100.00;97292.38;5016846;28;20062;-59
2022/12/12 04:31:57;;;;;;;13.10;6.85;;;;;;;-2.64;100.00;97262.97;5016387;28;20445;-61
2022/12/12 04:34:33;;;;;;;18.52;7.35;;;;;;;-2.74;100.00;97273.28;5016630;28;20324;-57
2022/12/12 04:37:02;;;;;;;17.23;7.22;;;;;;;-2.55;100.00;97279.03;5016314;28;20050;-59
2022/12/12 04:39:31;;;;;;;18.98;7.32;;;;;;;-2.95;100.00;97294.69;5016288;28;20108;-60
2022/12/12 04:41:59;;;;;;;16.08;7.10;;;;;;;-2.97;100.00;97288.84;5016576;28;20135;-60
2022/12/12 04:44:29;;;;;;;15.70;7.10;;;;;;;-2.78;100.00;97250.91;5016033;28;20081;-57
2022/12/12 04:46:58;;;;;;;20.25;8.63;;;;;;;-2.84;100.00;97261.81;5016403;28;20053;-56
2022/12/12 04:49:28;;;;;;;19.65;8.32;;;;;;;-2.99;100.00;97269.63;5015956;28;20050;-55
2022/12/12 04:51:59;;;;;;;20.00;8.48;;;;;;;-2.75;100.00;97266.34;5016581;28;20060;-61
2022/12/12 04:54:33;;;;;;;19.15;7.70;;;;;;;-2.97;100.00;97289.63;5015984;28;20097;-56
2022/12/12 04:57:04;;;;;;;20.08;8.73;;;;;;;-2.89;100.00;97282.69;5016279;28;20050;-60
2022/12/12 04:59:31;;;;;;;18.50;8.40;;;;;;;-2.92;100.00;97283.31;5016208;28;20144;-60
2022/12/12 05:02:03;;;;;;;19.13;8.30;;;;;;;-2.82;100.00;97291.00;5016135;28;20046;-60
2022/12/12 05:04:35;;;;;;;17.48;8.10;;;;;;;-2.81;100.00;97281.06;5015929;28;20092;-61
2022/12/12 05:07:06;;;;;;;22.45;9.98;;;;;;;-2.39;100.00;97274.66;5015708;28;20109;-59
2022/12/12 05:09:34;;;;;;;19.98;7.55;;;;;;;-2.77;100.00;97296.16;5016639;28;20077;-59
2022/12/12 05:12:01;;;;;;;12.82;5.97;;;;;;;-2.95;100.00;97300.06;5019221;28;20085;-58
2022/12/12 05:14:29;;;;;;;18.30;7.20;;;;;;;-2.77;100.00;97308.78;5019657;28;20189;-58
2022/12/12 05:17:01;;;;;;;12.20;6.82;;;;;;;-2.85;100.00;97315.78;5018960;28;20192;-59
2022/12/12 05:19:27;;;;;;;14.70;6.72;;;;;;;-2.91;100.00;97331.25;5019002;28;20056;-60
2022/12/12 05:21:53;;;;;;;14.57;6.80;;;;;;;-3.05;100.00;97337.94;5018931;28;20314;-66
2022/12/12 05:24:20;;;;;;;14.02;6.65;;;;;;;-3.27;100.00;97342.38;5019142;28;20045;-64
2022/12/12 05:26:47;;;;;;;13.52;6.45;;;;;;;-3.14;100.00;97336.06;5019163;28;20375;-59
2022/12/12 05:29:13;;;;;;;13.82;7.05;;;;;;;-2.97;100.00;97339.78;5019082;28;20065;-65
2022/12/12 05:31:39;;;;;;;13.65;7.05;;;;;;;-2.92;100.00;97343.09;5018826;28;20137;-60
2022/12/12 05:34:06;;;;;;;19.02;7.75;;;;;;;-2.71;100.00;97339.69;5018542;28;20085;-63
2022/12/12 05:36:32;;;;;;;15.77;7.68;;;;;;;-2.59;100.00;97337.13;5018713;28;20378;-63
2022/12/12 05:38:58;;;;;;;15.88;8.05;;;;;;;-2.43;100.00;97356.16;5018625;28;20046;-62
2022/12/12 05:41:25;;;;;;;16.13;7.65;;;;;;;-2.43;100.00;97381.09;5018681;28;20147;-65
2022/12/12 05:43:52;;;;;;;14.43;7.70;;;;;;;-2.99;100.00;97404.47;5018632;28;20065;-60
2022/12/12 05:46:19;;;;;;;20.17;8.02;;;;;;;-2.97;100.00;97393.41;5018516;28;20093;-66
2022/12/12 05:48:49;;;;;;;14.55;6.05;;;;;;;-3.16;100.00;97402.63;5018697;28;20388;-60
2022/12/12 05:51:16;;;;;;;11.27;5.95;;;;;;;-3.21;100.00;97404.66;5018571;28;20058;-64
2022/12/12 05:53:42;;;;;;;16.92;7.03;;;;;;;-2.80;100.00;97401.41;5018398;28;20137;-65
2022/12/12 05:56:10;;;;;;;15.48;6.63;;;;;;;-2.94;100.00;97425.75;5018752;28;20054;-63
2022/12/12 05:58:36;;;;;;;13.15;6.18;;;;;;;-2.99;100.00;97438.53;5018347;28;20081;-65
2022/12/12 06:01:04;;;;;;;9.93;6.00;;;;;;;-3.10;100.00;97443.41;5018442;28;20102;-65
2022/12/12 06:03:30;;;;;;;11.77;6.20;;;;;;;-3.10;100.00;97443.41;5018430;28;20399;-59
2022/12/12 06:05:57;;;;;;;10.55;5.40;;;;;;;-3.03;100.00;97430.34;5018776;28;20050;-65
2022/12/12 06:08:23;;;;;;;12.35;5.07;;;;;;;-3.19;100.00;97431.94;5018167;28;20093;-66
2022/12/12 06:10:50;;;;;;;14.27;5.97;;;;;;;-2.93;100.00;97437.25;5018557;28;20133;-64
2022/12/12 06:13:16;;;;;;;15.48;5.40;;;;;;;-3.34;100.00;97446.59;5018000;28;20089;-66
2022/12/12 06:15:42;;;;;;;12.90;5.05;;;;;;;-3.22;100.00;97456.69;5017728;28;20089;-66
2022/12/12 06:18:11;;;;;;;10.32;5.45;;;;;;;-3.28;100.00;97448.03;5017912;28;20053;-59
2022/12/12 06:20:37;;;;;;;9.40;5.10;;;;;;;-3.37;100.00;97461.41;5017850;28;20057;-61
2022/12/12 06:23:04;;;;;;;11.95;5.90;;;;;;;-3.08;100.00;97452.72;5017333;28;20057;-65
2022/12/12 06:25:30;;;;;;;11.10;5.30;;;;;;;-3.00;100.00;97453.84;5017835;28;20137;-64
2022/12/12 06:27:56;;;;;;;12.75;5.50;;;;;;;-2.66;100.00;97455.66;5018189;28;20367;-66
2022/12/12 06:30:23;;;;;;;11.90;6.30;;;;;;;-2.79;100.00;97458.53;5017554;28;20115;-63
2022/12/12 06:32:49;;;;;;;15.82;6.75;;;;;;;-3.00;100.00;97467.25;5018015;28;20064;-60
2022/12/12 06:35:16;;;;;;;14.40;6.88;;;;;;;-3.16;100.00;97484.91;5017421;28;20056;-67
2022/12/12 06:37:43;;;;;;;17.90;8.27;;;;;;;-3.21;100.00;97498.47;5018204;28;20046;-68
2022/12/12 06:40:10;;;;;;;16.35;8.85;;;;;;;-2.87;100.00;97495.75;5017663;28;20060;-63
2022/12/12 06:42:37;;;;;;;14.20;7.72;;;;;;;-3.19;100.00;97491.69;5018068;28;20053;-66
2022/12/12 06:45:04;;;;;;;15.80;7.20;;;;;;;-3.10;100.00;97502.41;5017442;28;20062;-65
2022/12/12 06:47:30;;;;;;;17.45;7.05;;;;;;;-2.81;100.00;97498.28;5017540;28;20125;-66
2022/12/12 06:49:56;;;;;;;9.55;5.93;;;;;;;-3.24;100.00;97504.47;5017770;28;20050;-63
2022/12/12 06:52:23;;;;;;;17.02;6.93;;;;;;;-3.16;100.00;97493.75;5017345;28;20160;-66
2022/12/12 06:54:50;;;;;;;13.32;7.03;;;;;;;-3.65;100.00;97509.13;5017613;28;20404;-65
2022/12/12 06:57:16;;;;;;;12.57;6.43;;;;;;;-3.68;100.00;97503.63;5017604;28;20089;-66
2022/12/12 06:59:42;;;;;;;14.15;6.85;;;;;;;-3.54;100.00;97504.25;5017650;28;20430;-65
2022/12/12 07:02:10;;;;;;;11.15;5.53;;;;;;;-3.55;100.00;97518.78;5017164;28;20458;-66
2022/12/12 07:04:37;;;;;;;11.18;5.95;;;;;;;-3.65;100.00;97519.84;5017927;28;20499;-67
2022/12/12 07:07:03;;;;;;;12.45;6.43;;;;;;;-3.26;100.00;97510.16;5017309;28;20097;-64
2022/12/12 07:09:30;;;;;;;12.55;5.82;;;;;;;-4.10;100.00;97505.84;5017594;28;20057;-67
2022/12/12 07:11:56;;;;;;;14.77;7.45;;;;;;;-3.87;100.00;97525.31;5017481;28;20331;-65
2022/12/12 07:14:23;;;;;;;15.32;7.25;;;;;;;-3.57;100.00;97499.53;5017014;28;20408;-66
2022/12/12 07:16:49;;;;;;;18.45;9.32;;;;;;;-3.35;100.00;97504.75;5017013;28;20149;-66
2022/12/12 07:19:16;;;;;;;16.00;8.00;;;;;;;-3.79;100.00;97517.31;5017178;28;20164;-64
2022/12/12 07:21:42;;;;;;;23.13;9.15;;;;;;;-3.79;100.00;97529.91;5017237;28;20084;-65
2022/12/12 07:24:09;;;;;;;18.13;7.55;;;;;;;-3.46;100.00;97514.22;5016975;28;20049;-64
2022/12/12 07:26:36;;;;;;;12.25;6.47;;;;;;;-3.92;100.00;97526.25;5017345;28;20060;-65
2022/12/12 07:29:04;;;;;;;11.73;5.78;;;;;;;-3.82;100.00;97515.25;5016928;28;20464;-62
2022/12/12 07:31:30;;;;;;;15.50;7.63;;;;;;;-3.55;100.00;97505.38;5017455;28;20097;-64
2022/12/12 07:33:56;;;;;;;11.55;7.07;;;;;;;-3.37;100.00;97506.97;5015955;28;20060;-65
2022/12/12 07:36:23;;;;;;;13.05;6.50;;;;;;;-3.45;100.00;97507.75;5017363;28;20144;-62
2022/12/12 07:38:49;;;;;;;13.07;7.32;;;;;;;-3.36;100.00;97513.91;5016883;28;20136;-65
2022/12/12 07:41:19;;;;;;;12.23;6.22;;;;;;;-3.20;100.00;97508.06;5016814;28;20064;-64
2022/12/12 07:43:46;;;;;;;11.40;6.07;;;;;;;-3.48;100.00;97535.16;5016824;28;20509;-64
2022/12/12 07:46:15;;;;;;;20.15;7.32;;;;;;;-3.56;100.00;97525.25;5017008;28;20480;-63
2022/12/12 07:48:42;;;;;;;13.85;7.13;;;;;;;-3.72;100.00;97527.56;5016907;28;20339;-63
2022/12/12 07:51:08;;;;;;;16.60;8.23;;;;;;;-3.89;100.00;97547.03;5017058;28;20383;-65
2022/12/12 07:53:34;;;;;;;16.90;7.13;;;;;;;-3.89;100.00;97546.25;5016569;28;20050;-63
2022/12/12 07:56:04;;;;;;;20.80;8.00;;;;;;;-3.69;100.00;97539.53;5016800;28;20160;-64
2022/12/12 07:58:31;;;;;;;19.63;7.50;;;;;;;-3.69;100.00;97544.91;5016579;28;20057;-63
2022/12/12 08:00:58;;;;;;;15.63;6.22;;;;;;;-4.09;100.00;97547.59;5016689;28;20069;-64
2022/12/12 08:03:24;;;;;;;19.75;7.55;;;;;;;-4.07;100.00;97550.72;5016577;28;20165;-62
2022/12/12 08:05:50;;;;;;;16.10;7.90;;;;;;;-3.96;100.00;97538.66;5016518;28;20066;-64
2022/12/12 08:08:17;;;;;;;15.98;5.25;;;;;;;-3.79;100.00;97546.75;5016642;28;20053;-66
2022/12/12 08:10:43;;;;;;;10.45;5.63;;;;;;;-4.03;100.00;97555.19;5016769;28;20322;-65
2022/12/12 08:13:10;;;;;;;12.55;6.32;;;;;;;-4.06;100.00;97558.47;5016324;28;20060;-63
2022/12/12 08:15:36;;;;;;;12.73;5.55;;;;;;;-4.01;100.00;97546.81;5016444;28;20081;-64
2022/12/12 08:18:03;;;;;;;9.40;5.30;;;;;;;-3.54;100.00;97555.16;5016480;28;20390;-66
2022/12/12 08:20:30;;;;;;;12.02;6.93;;;;;;;-3.70;100.00;97557.47;5016486;28;20380;-64
2022/12/12 08:22:56;;;;;;;12.50;5.70;;;;;;;-3.90;100.00;97584.81;5016182;28;20061;-64
2022/12/12 08:25:22;;;;;;;11.88;7.07;;;;;;;-3.76;100.00;97579.38;5016537;28;20391;-64
2022/12/12 08:27:48;;;;;;;14.63;6.95;;;;;;;-3.76;100.00;97571.34;5016070;28;20068;-62
2022/12/12 08:30:15;;;;;;;10.43;4.97;;;;;;;-3.97;100.00;97574.56;5016480;28;20108;-64
2022/12/12 08:32:41;;;;;;;17.33;6.97;;;;;;;-3.75;100.00;97579.06;5015929;28;20069;-64
2022/12/12 08:35:09;;;;;;;11.85;5.97;;;;;;;-3.75;100.00;97586.31;5016371;28;20395;-64
2022/12/12 08:37:35;;;;;;;12.48;6.30;;;;;;;-3.70;100.00;97576.22;5015773;28;20204;-63
2022/12/12 08:40:02;;;;;;;13.50;6.45;;;;;;;-3.87;100.00;97576.94;5016311;28;20372;-66
2022/12/12 08:42:28;;;;;;;10.73;5.88;;;;;;;-4.15;100.00;97563.00;5016403;28;20045;-66
2022/12/12 08:44:54;;;;;;;17.77;7.57;;;;;;;-3.83;100.00;97555.72;5017191;28;20099;-63
2022/12/12 08:47:20;;;;;;;11.93;6.53;;;;;;;-3.87;100.00;97558.22;5019617;28;20099;-66
2022/12/12 08:49:47;;;;;;;11.63;5.65;;;;;;;-3.77;100.00;97562.50;5019412;28;20145;-61
2022/12/12 08:52:14;;;;;;;14.30;6.22;;;;;;;-4.00;100.00;97572.50;5019703;28;20478;-64
2022/12/12 08:54:40;;;;;;;14.13;6.45;;;;;;;-3.50;100.00;97558.00;5019451;28;20332;-64
2022/12/12 08:57:06;;;;;;;13.20;6.43;;;;;;;-3.26;100.00;97557.59;5019526;28;20068;-65
2022/12/12 08:59:33;;;;;;;13.27;6.28;;;;;;;-3.18;100.00;97554.13;5019375;28;20053;-64
2022/12/12 09:01:59;;;;;;;14.32;6.45;;;;;;;-3.42;100.00;97544.63;5019888;28;20068;-64
2022/12/12 09:04:25;;;;;;;11.63;6.50;;;;;;;-3.45;100.00;97539.13;5019408;28;20133;-65
2022/12/12 09:06:52;;;;;;;13.00;6.90;;;;;;;-3.24;100.00;97544.66;5019203;28;20149;-63
2022/12/12 09:09:19;;;;;;;12.52;6.20;;;;;;;-3.46;100.00;97527.63;5019071;28;20054;-64
2022/12/12 09:11:45;;;;;;;17.33;6.60;;;;;;;-3.34;100.00;97525.09;5019139;28;20127;-66
2022/12/12 09:14:12;;;;;;;13.80;6.45;;;;;;;-3.30;100.00;97506.50;5019168;28;20089;-64
2022/12/12 09:16:38;;;;;;;18.55;7.82;;;;;;;-3.35;100.00;97507.44;5018919;28;20050;-64
2022/12/12 09:19:05;;;;;;;24.27;7.05;;;;;;;-3.93;100.00;97505.94;5018806;28;20053;-64
2022/12/12 09:21:31;;;;;;;17.80;7.40;;;;;;;-3.89;100.00;97535.53;5018713;28;20049;-64
2022/12/12 09:23:57;;;;;;;15.48;7.00;;;;;;;-3.72;100.00;97551.66;5019358;28;20055;-63
2022/12/12 09:26:24;;;;;;;19.08;8.20;;;;;;;-3.47;100.00;97558.16;5018666;28;20443;-63
2022/12/12 09:28:51;;;;;;;15.65;7.10;;;;;;;-3.53;100.00;97559.44;5019077;28;20331;-66
2022/12/12 09:31:17;;;;;;;21.95;7.63;;;;;;;-3.52;100.00;97547.63;5018883;28;20060;-65
2022/12/12 09:33:43;;;;;;;28.85;7.68;;;;;;;-3.20;100.00;97545.59;5018813;28;20085;-65
2022/12/12 09:36:11;;;;;;;16.52;8.10;;;;;;;-3.46;100.00;97534.88;5019027;28;20110;-64
2022/12/12 09:38:38;;;;;;;14.32;7.63;;;;;;;-3.61;100.00;97534.19;5018449;28;20050;-63
2022/12/12 09:41:12;;;;;;;18.23;9.07;;;;;;;-3.81;100.00;97556.97;5018367;28;20060;-65
2022/12/12 09:43:46;;;;;;;15.40;8.02;;;;;;;-3.61;100.00;97566.34;5018830;28;20195;-66
2022/12/12 09:46:21;;;;;;;29.40;9.98;;;;;;;-3.57;100.00;97571.84;5018835;28;20392;-66
2022/12/12 09:48:48;;;;;;;22.48;9.10;;;;;;;-3.87;100.00;97584.19;5018645;28;20488;-65
2022/12/12 09:51:14;;;;;;;16.05;7.40;;;;;;;-3.93;100.00;97580.88;5018592;28;20086;-62
2022/12/12 09:53:44;;;;;;;16.58;8.27;;;;;;;-3.60;100.00;97589.38;5018594;28;20192;-64
2022/12/12 09:56:18;;;;;;;20.63;8.55;;;;;;;-3.72;100.00;97599.88;5017467;28;20054;-62
2022/12/12 09:58:49;;;;;;;23.48;10.40;;;;;;;-3.65;100.00;97602.09;5018492;28;20053;-66
2022/12/12 10:01:23;;;;;;;16.42;7.18;;;;;;;-4.21;100.00;97604.34;5018605;28;20049;-64
2022/12/12 10:03:59;;;;;;;16.73;7.38;;;;;;;-3.83;100.00;97617.31;5018420;28;20050;-64
2022/12/12 10:06:33;;;;;;;12.68;6.50;;;;;;;-3.92;100.00;97613.81;5018674;28;20414;-63
2022/12/12 10:09:15;;;;;;;12.02;4.85;;;;;;;-4.06;100.00;97619.25;5018489;28;20316;-65
2022/12/12 10:11:53;;;;;;;13.38;5.63;;;;;;;-3.84;100.00;97629.88;5018831;28;20049;-66
2022/12/12 10:14:31;;;;;;;11.95;5.40;;;;;;;-3.81;100.00;97631.16;5018483;28;20061;-65
2022/12/12 10:16:58;;;;;;;10.95;5.30;;;;;;;-3.97;100.00;97628.09;5018202;28;20057;-65
2022/12/12 10:19:29;;;;;;;6.57;4.13;;;;;;;-4.07;100.00;97621.09;5018036;28;20053;-60
2022/12/12 10:22:01;;;;;;;12.50;6.53;;;;;;;-4.01;100.00;97621.78;5018207;28;20335;-61
2022/12/12 10:24:32;;;;;;;8.32;4.75;;;;;;;-3.97;100.00;97624.63;5018283;28;20057;-68
2022/12/12 10:27:00;;;;;;;10.25;5.10;;;;;;;-3.45;100.00;97619.50;5018119;28;20054;-59
2022/12/12 10:29:27;;;;;;;8.75;4.80;;;;;;;-3.38;100.00;97604.53;5018178;28;20054;-63
2022/12/12 10:32:03;;;;;;;11.18;5.45;;;;;;;-3.71;100.00;97596.06;5017915;28;20053;-62
2022/12/12 10:34:45;;;;;;;10.93;5.70;;;;;;;-3.92;100.00;97577.09;5018151;28;20331;-63
2022/12/12 10:37:32;;;;;;;9.82;4.90;;;;;;;-3.66;100.00;97587.13;5017893;28;20058;-62
2022/12/12 10:40:09;;;;;;;14.20;6.43;;;;;;;-3.88;100.00;97578.06;5017958;28;20050;-64
2022/12/12 10:42:41;;;;;;;9.98;5.40;;;;;;;-3.90;100.00;97574.91;5018091;28;20065;-63
2022/12/12 10:45:25;;;;;;;8.10;4.47;;;;;;;-4.06;100.00;97573.75;5017754;28;20394;-65
2022/12/12 10:47:52;;;;;;;7.43;4.30;;;;;;;-3.78;100.00;97580.47;5017632;28;20073;-61
2022/12/12 10:50:26;;;;;;;9.80;3.97;;;;;;;-4.09;100.00;97585.06;5017874;28;20480;-65
2022/12/12 10:52:52;;;;;;;9.27;6.00;;;;;;;-4.18;100.00;97586.91;5017606;28;20145;-62
2022/12/12 10:55:21;;;;;;;16.85;7.55;;;;;;;-3.74;100.00;97611.97;5017532;28;20144;-60
2022/12/12 10:57:47;;;;;;;18.33;9.05;;;;;;;-3.47;100.00;97616.31;5017700;28;20136;-60
2022/12/12 11:00:26;;;;;;;18.40;9.57;;;;;;;-3.72;100.00;97599.06;5017285;28;20384;-64
2022/12/12 11:02:56;;;;;;;18.00;7.80;;;;;;;-3.82;100.00;97597.47;5017611;28;20050;-62
2022/12/12 11:05:26;;;;;;;16.30;6.38;;;;;;;-4.32;100.00;97601.16;5017291;28;20053;-61
2022/12/12 11:08:01;;;;;;;8.93;4.47;;;;;;;-3.98;100.00;97604.31;5017701;28;20144;-59
2022/12/12 11:10:30;;;;;;;11.35;4.13;;;;;;;-3.86;100.00;97608.00;5017312;28;20313;-58
2022/12/12 11:12:58;;;;;;;11.50;6.03;;;;;;;-3.88;100.00;97615.53;5017489;28;20301;-65
2022/12/12 11:15:48;;;;;;;23.75;7.18;;;;;;;-3.92;100.00;97611.91;5017590;28;20050;-66
2022/12/12 11:18:17;;;;;;;12.38;5.40;;;;;;;-3.92;100.00;97609.22;5017622;28;20141;-61
2022/12/12 11:20:46;;;;;;;13.02;5.07;;;;;;;-3.99;100.00;97610.78;5017528;28;20050;-66
2022/12/12 11:23:19;;;;;;;6.65;3.50;;;;;;;-3.96;100.00;97621.66;5017199;28;20144;-66
2022/12/12 11:25:53;;;;;;;7.65;4.35;;;;;;;-4.31;100.00;97612.63;5017558;28;20054;-65
2022/12/12 11:28:23;;;;;;;15.57;6.80;;;;;;;-4.05;100.00;97618.94;5016926;28;20046;-64
2022/12/12 11:30:51;;;;;;;13.27;7.07;;;;;;;-4.24;100.00;97622.91;5016976;28;20148;-65
2022/12/12 11:33:21;;;;;;;21.65;9.63;;;;;;;-4.36;100.00;97618.13;5017457;28;20061;-64
2022/12/12 11:35:54;;;;;;;10.98;6.45;;;;;;;-4.52;100.00;97633.75;5016821;28;20144;-62
2022/12/12 11:38:24;;;;;;;11.88;6.43;;;;;;;-4.56;100.00;97630.09;5016630;28;20100;-68
2022/12/12 11:40:57;;;;;;;13.00;7.35;;;;;;;-4.45;100.00;97636.00;5016982;28;20046;-62